sensor_id;sensor_type;location;lat;lon;timestamp;temperature;humidity
4697;DHT22;2362;50.780;0.292;2022-07-04T00:00:55;15.80;99.90
4697;DHT22;2362;50.780;0.292;2022-07-04T00:03:20;15.90;99.90
4697;DHT22;2362;50.780;0.292;2022-07-04T00:05:46;15.90;99.90
4697;DHT22;2362;50.780;0.292;2022-07-04T00:08:12;15.90;99.90
4697;DHT22;2362;50.780;0.292;2022-07-04T00:10:38;15.80;99.90
4697;DHT22;2362;50.780;0.292;2022-07-04T00:13:03;15.80;99.90
4697;DHT22;2362;50.780;0.292;2022-07-04T00:15:29;15.80;99.90
4697;DHT22;2362;50.780;0.292;2022-07-04T00:17:55;15.70;99.90
4697;DHT22;2362;50.780;0.292;2022-07-04T00:20:20;15.70;99.90
4697;DHT22;2362;50.780;0.292;2022-07-04T00:22:46;15.60;99.90
4697;DHT22;2362;50.780;0.292;2022-07-04T00:25:12;15.60;99.90
4697;DHT22;2362;50.780;0.292;2022-07-04T00:27:38;15.50;99.90
4697;DHT22;2362;50.780;0.292;2022-07-04T00:30:04;15.40;99.90
4697;DHT22;2362;50.780;0.292;2022-07-04T00:32:30;15.30;99.90
4697;DHT22;2362;50.780;0.292;2022-07-04T00:34:56;15.30;99.90
4697;DHT22;2362;50.780;0.292;2022-07-04T00:37:22;15.20;99.90
4697;DHT22;2362;50.780;0.292;2022-07-04T00:39:47;15.10;99.90
4697;DHT22;2362;50.780;0.292;2022-07-04T00:42:13;15.10;99.90
4697;DHT22;2362;50.780;0.292;2022-07-04T00:44:39;15.00;99.90
4697;DHT22;2362;50.780;0.292;2022-07-04T00:47:06;15.00;99.90
4697;DHT22;2362;50.780;0.292;2022-07-04T00:49:33;14.90;99.90
4697;DHT22;2362;50.780;0.292;2022-07-04T00:51:59;14.90;99.90
4697;DHT22;2362;50.780;0.292;2022-07-04T00:54:28;14.80;99.90
4697;DHT22;2362;50.780;0.292;2022-07-04T00:56:55;14.80;99.90
4697;DHT22;2362;50.780;0.292;2022-07-04T00:59:21;14.70;99.90
4697;DHT22;2362;50.780;0.292;2022-07-04T01:01:48;14.70;99.90
4697;DHT22;2362;50.780;0.292;2022-07-04T01:04:14;14.60;99.90
4697;DHT22;2362;50.780;0.292;2022-07-04T01:06:40;14.60;99.90
4697;DHT22;2362;50.780;0.292;2022-07-04T01:09:06;14.60;99.90
4697;DHT22;2362;50.780;0.292;2022-07-04T01:11:31;14.60;99.90
4697;DHT22;2362;50.780;0.292;2022-07-04T01:13:57;14.50;99.90
4697;DHT22;2362;50.780;0.292;2022-07-04T01:16:27;14.50;99.90
4697;DHT22;2362;50.780;0.292;2022-07-04T01:18:53;14.50;99.90
4697;DHT22;2362;50.780;0.292;2022-07-04T01:21:20;14.40;99.90
4697;DHT22;2362;50.780;0.292;2022-07-04T01:23:46;14.40;99.90
4697;DHT22;2362;50.780;0.292;2022-07-04T01:26:12;14.40;99.90
4697;DHT22;2362;50.780;0.292;2022-07-04T01:28:38;14.30;99.90
4697;DHT22;2362;50.780;0.292;2022-07-04T01:31:05;14.30;99.90
4697;DHT22;2362;50.780;0.292;2022-07-04T01:33:31;14.40;99.90
4697;DHT22;2362;50.780;0.292;2022-07-04T01:35:57;14.30;99.90
4697;DHT22;2362;50.780;0.292;2022-07-04T01:38:23;14.40;99.90
4697;DHT22;2362;50.780;0.292;2022-07-04T01:40:49;14.40;99.90
4697;DHT22;2362;50.780;0.292;2022-07-04T01:43:14;14.40;99.90
4697;DHT22;2362;50.780;0.292;2022-07-04T01:45:40;14.40;99.90
4697;DHT22;2362;50.780;0.292;2022-07-04T01:48:07;14.40;99.90
4697;DHT22;2362;50.780;0.292;2022-07-04T01:50:34;14.40;99.90
4697;DHT22;2362;50.780;0.292;2022-07-04T01:53:00;14.40;99.90
4697;DHT22;2362;50.780;0.292;2022-07-04T01:55:26;14.30;99.90
4697;DHT22;2362;50.780;0.292;2022-07-04T01:57:53;14.30;99.90
4697;DHT22;2362;50.780;0.292;2022-07-04T02:00:18;14.30;99.90
4697;DHT22;2362;50.780;0.292;2022-07-04T02:03:03;14.30;99.90
4697;DHT22;2362;50.780;0.292;2022-07-04T02:05:29;14.20;99.90
4697;DHT22;2362;50.780;0.292;2022-07-04T02:07:55;14.20;99.90
4697;DHT22;2362;50.780;0.292;2022-07-04T02:10:21;14.20;99.90
4697;DHT22;2362;50.780;0.292;2022-07-04T02:12:47;14.20;99.90
4697;DHT22;2362;50.780;0.292;2022-07-04T02:15:38;14.20;99.90
4697;DHT22;2362;50.780;0.292;2022-07-04T02:18:06;14.20;99.90
4697;DHT22;2362;50.780;0.292;2022-07-04T02:20:32;14.10;99.90
4697;DHT22;2362;50.780;0.292;2022-07-04T02:22:59;14.10;99.90
4697;DHT22;2362;50.780;0.292;2022-07-04T02:25:25;14.10;99.90
4697;DHT22;2362;50.780;0.292;2022-07-04T02:27:51;14.10;99.90
4697;DHT22;2362;50.780;0.292;2022-07-04T02:30:16;14.00;99.90
4697;DHT22;2362;50.780;0.292;2022-07-04T02:32:42;14.00;99.90
4697;DHT22;2362;50.780;0.292;2022-07-04T02:35:09;14.00;99.90
4697;DHT22;2362;50.780;0.292;2022-07-04T02:37:35;13.90;99.90
4697;DHT22;2362;50.780;0.292;2022-07-04T02:40:02;13.90;99.90
4697;DHT22;2362;50.780;0.292;2022-07-04T02:42:31;13.80;99.90
4697;DHT22;2362;50.780;0.292;2022-07-04T02:44:58;13.80;99.90
4697;DHT22;2362;50.780;0.292;2022-07-04T02:47:24;13.80;99.90
4697;DHT22;2362;50.780;0.292;2022-07-04T02:49:49;13.80;99.90
4697;DHT22;2362;50.780;0.292;2022-07-04T02:52:15;13.80;99.90
4697;DHT22;2362;50.780;0.292;2022-07-04T02:54:41;13.80;99.90
4697;DHT22;2362;50.780;0.292;2022-07-04T02:57:07;13.80;99.90
4697;DHT22;2362;50.780;0.292;2022-07-04T02:59:33;13.80;99.90
4697;DHT22;2362;50.780;0.292;2022-07-04T03:01:59;13.70;99.90
4697;DHT22;2362;50.780;0.292;2022-07-04T03:04:24;13.70;99.90
4697;DHT22;2362;50.780;0.292;2022-07-04T03:06:50;13.70;99.90
4697;DHT22;2362;50.780;0.292;2022-07-04T03:09:16;13.70;99.90
4697;DHT22;2362;50.780;0.292;2022-07-04T03:11:43;13.60;99.90
4697;DHT22;2362;50.780;0.292;2022-07-04T03:14:09;13.60;99.90
4697;DHT22;2362;50.780;0.292;2022-07-04T03:16:35;13.60;99.90
4697;DHT22;2362;50.780;0.292;2022-07-04T03:19:00;13.60;99.90
4697;DHT22;2362;50.780;0.292;2022-07-04T03:21:26;13.50;99.90
4697;DHT22;2362;50.780;0.292;2022-07-04T03:23:51;13.60;99.90
4697;DHT22;2362;50.780;0.292;2022-07-04T03:26:28;13.50;99.90
4697;DHT22;2362;50.780;0.292;2022-07-04T03:28:55;13.50;99.90
4697;DHT22;2362;50.780;0.292;2022-07-04T03:31:21;13.50;99.90
4697;DHT22;2362;50.780;0.292;2022-07-04T03:33:47;13.50;99.90
4697;DHT22;2362;50.780;0.292;2022-07-04T03:36:13;13.50;99.90
4697;DHT22;2362;50.780;0.292;2022-07-04T03:38:39;13.40;99.90
4697;DHT22;2362;50.780;0.292;2022-07-04T03:41:04;13.40;99.90
4697;DHT22;2362;50.780;0.292;2022-07-04T03:43:30;13.40;99.90
4697;DHT22;2362;50.780;0.292;2022-07-04T03:45:56;13.30;99.90
4697;DHT22;2362;50.780;0.292;2022-07-04T03:48:22;13.30;99.90
4697;DHT22;2362;50.780;0.292;2022-07-04T03:50:47;13.30;99.90
4697;DHT22;2362;50.780;0.292;2022-07-04T03:53:13;13.30;99.90
4697;DHT22;2362;50.780;0.292;2022-07-04T03:55:40;13.30;99.90
4697;DHT22;2362;50.780;0.292;2022-07-04T03:58:06;13.30;99.90
4697;DHT22;2362;50.780;0.292;2022-07-04T04:00:32;13.30;99.90
4697;DHT22;2362;50.780;0.292;2022-07-04T04:02:58;13.30;99.90
4697;DHT22;2362;50.780;0.292;2022-07-04T04:05:24;13.30;99.90
4697;DHT22;2362;50.780;0.292;2022-07-04T04:07:58;13.30;99.90
4697;DHT22;2362;50.780;0.292;2022-07-04T04:10:26;13.20;99.90
4697;DHT22;2362;50.780;0.292;2022-07-04T04:12:51;13.30;99.90
4697;DHT22;2362;50.780;0.292;2022-07-04T04:15:17;13.30;99.90
4697;DHT22;2362;50.780;0.292;2022-07-04T04:17:43;13.40;99.90
4697;DHT22;2362;50.780;0.292;2022-07-04T04:20:09;13.40;99.90
4697;DHT22;2362;50.780;0.292;2022-07-04T04:22:35;13.40;99.90
4697;DHT22;2362;50.780;0.292;2022-07-04T04:25:00;13.40;99.90
4697;DHT22;2362;50.780;0.292;2022-07-04T04:27:26;13.40;99.90
4697;DHT22;2362;50.780;0.292;2022-07-04T04:29:52;13.50;99.90
4697;DHT22;2362;50.780;0.292;2022-07-04T04:32:17;13.40;99.90
4697;DHT22;2362;50.780;0.292;2022-07-04T04:34:43;13.40;99.90
4697;DHT22;2362;50.780;0.292;2022-07-04T04:37:09;13.50;99.90
4697;DHT22;2362;50.780;0.292;2022-07-04T04:39:35;13.40;99.90
4697;DHT22;2362;50.780;0.292;2022-07-04T04:42:00;13.40;99.90
4697;DHT22;2362;50.780;0.292;2022-07-04T04:44:26;13.40;99.90
4697;DHT22;2362;50.780;0.292;2022-07-04T04:46:52;13.40;99.90
4697;DHT22;2362;50.780;0.292;2022-07-04T04:49:17;13.50;99.90
4697;DHT22;2362;50.780;0.292;2022-07-04T04:51:44;13.50;99.90
4697;DHT22;2362;50.780;0.292;2022-07-04T04:54:10;13.50;99.90
4697;DHT22;2362;50.780;0.292;2022-07-04T04:56:35;13.50;99.90
4697;DHT22;2362;50.780;0.292;2022-07-04T04:59:01;13.60;99.90
4697;DHT22;2362;50.780;0.292;2022-07-04T05:01:27;13.60;99.90
4697;DHT22;2362;50.780;0.292;2022-07-04T05:03:52;13.60;99.90
4697;DHT22;2362;50.780;0.292;2022-07-04T05:06:18;13.80;99.90
4697;DHT22;2362;50.780;0.292;2022-07-04T05:08:44;14.70;99.90
4697;DHT22;2362;50.780;0.292;2022-07-04T05:11:10;15.80;99.90
4697;DHT22;2362;50.780;0.292;2022-07-04T05:13:36;16.90;99.90
4697;DHT22;2362;50.780;0.292;2022-07-04T05:16:01;17.50;99.90
4697;DHT22;2362;50.780;0.292;2022-07-04T05:18:27;18.10;99.90
4697;DHT22;2362;50.780;0.292;2022-07-04T05:20:53;18.50;99.90
4697;DHT22;2362;50.780;0.292;2022-07-04T05:23:19;19.00;99.90
4697;DHT22;2362;50.780;0.292;2022-07-04T05:25:44;19.40;99.90
4697;DHT22;2362;50.780;0.292;2022-07-04T05:28:10;19.60;99.90
4697;DHT22;2362;50.780;0.292;2022-07-04T05:30:36;19.80;99.90
4697;DHT22;2362;50.780;0.292;2022-07-04T05:33:01;19.90;99.90
4697;DHT22;2362;50.780;0.292;2022-07-04T05:35:27;20.10;99.90
4697;DHT22;2362;50.780;0.292;2022-07-04T05:37:53;19.90;99.90
4697;DHT22;2362;50.780;0.292;2022-07-04T05:40:19;19.50;99.90
4697;DHT22;2362;50.780;0.292;2022-07-04T05:42:47;19.80;99.90
4697;DHT22;2362;50.780;0.292;2022-07-04T05:45:12;19.70;99.90
4697;DHT22;2362;50.780;0.292;2022-07-04T05:47:38;19.70;99.90
4697;DHT22;2362;50.780;0.292;2022-07-04T05:50:04;19.40;99.90
4697;DHT22;2362;50.780;0.292;2022-07-04T05:52:30;19.80;99.90
4697;DHT22;2362;50.780;0.292;2022-07-04T05:54:55;19.60;99.90
4697;DHT22;2362;50.780;0.292;2022-07-04T05:57:21;19.50;99.90
4697;DHT22;2362;50.780;0.292;2022-07-04T05:59:47;19.50;99.90
4697;DHT22;2362;50.780;0.292;2022-07-04T06:02:12;20.20;99.90
4697;DHT22;2362;50.780;0.292;2022-07-04T06:04:39;20.50;99.90
4697;DHT22;2362;50.780;0.292;2022-07-04T06:07:05;20.30;99.90
4697;DHT22;2362;50.780;0.292;2022-07-04T06:09:31;20.20;99.90
4697;DHT22;2362;50.780;0.292;2022-07-04T06:11:57;20.60;99.90
4697;DHT22;2362;50.780;0.292;2022-07-04T06:14:22;21.10;99.90
4697;DHT22;2362;50.780;0.292;2022-07-04T06:16:48;21.70;99.90
4697;DHT22;2362;50.780;0.292;2022-07-04T06:19:14;21.70;99.90
4697;DHT22;2362;50.780;0.292;2022-07-04T06:21:39;21.90;99.90
4697;DHT22;2362;50.780;0.292;2022-07-04T06:24:05;21.40;99.90
4697;DHT22;2362;50.780;0.292;2022-07-04T06:26:31;21.70;99.90
4697;DHT22;2362;50.780;0.292;2022-07-04T06:28:57;21.60;99.90
4697;DHT22;2362;50.780;0.292;2022-07-04T06:31:22;21.20;99.90
4697;DHT22;2362;50.780;0.292;2022-07-04T06:33:48;20.80;99.90
4697;DHT22;2362;50.780;0.292;2022-07-04T06:36:32;21.00;99.90
4697;DHT22;2362;50.780;0.292;2022-07-04T06:38:58;21.20;99.90
4697;DHT22;2362;50.780;0.292;2022-07-04T06:41:24;21.20;99.90
4697;DHT22;2362;50.780;0.292;2022-07-04T06:43:50;21.30;99.90
4697;DHT22;2362;50.780;0.292;2022-07-04T06:46:16;21.40;99.90
4697;DHT22;2362;50.780;0.292;2022-07-04T06:48:41;21.60;99.90
4697;DHT22;2362;50.780;0.292;2022-07-04T06:51:08;22.20;99.90
4697;DHT22;2362;50.780;0.292;2022-07-04T06:53:34;22.30;99.90
4697;DHT22;2362;50.780;0.292;2022-07-04T06:55:59;22.80;99.90
4697;DHT22;2362;50.780;0.292;2022-07-04T06:58:25;23.00;99.90
4697;DHT22;2362;50.780;0.292;2022-07-04T07:00:51;23.50;99.90
4697;DHT22;2362;50.780;0.292;2022-07-04T07:03:17;23.40;99.90
4697;DHT22;2362;50.780;0.292;2022-07-04T07:05:42;23.00;99.90
4697;DHT22;2362;50.780;0.292;2022-07-04T07:08:08;23.40;99.90
4697;DHT22;2362;50.780;0.292;2022-07-04T07:10:34;24.00;99.90
4697;DHT22;2362;50.780;0.292;2022-07-04T07:13:02;24.20;99.90
4697;DHT22;2362;50.780;0.292;2022-07-04T07:15:28;24.50;99.90
4697;DHT22;2362;50.780;0.292;2022-07-04T07:17:54;24.50;99.90
4697;DHT22;2362;50.780;0.292;2022-07-04T07:20:20;25.00;99.90
4697;DHT22;2362;50.780;0.292;2022-07-04T07:22:46;24.80;99.90
4697;DHT22;2362;50.780;0.292;2022-07-04T07:25:12;24.90;99.90
4697;DHT22;2362;50.780;0.292;2022-07-04T07:27:39;25.00;99.90
4697;DHT22;2362;50.780;0.292;2022-07-04T07:30:06;25.00;99.90
4697;DHT22;2362;50.780;0.292;2022-07-04T07:32:32;24.80;99.90
4697;DHT22;2362;50.780;0.292;2022-07-04T07:34:57;24.50;99.90
4697;DHT22;2362;50.780;0.292;2022-07-04T07:37:23;24.10;99.90
4697;DHT22;2362;50.780;0.292;2022-07-04T07:39:49;24.50;99.90
4697;DHT22;2362;50.780;0.292;2022-07-04T07:42:16;23.90;99.90
4697;DHT22;2362;50.780;0.292;2022-07-04T07:44:42;23.40;99.90
4697;DHT22;2362;50.780;0.292;2022-07-04T07:47:12;23.20;99.90
4697;DHT22;2362;50.780;0.292;2022-07-04T07:49:37;22.80;99.90
4697;DHT22;2362;50.780;0.292;2022-07-04T07:52:03;22.40;99.90
4697;DHT22;2362;50.780;0.292;2022-07-04T07:54:29;21.90;99.90
4697;DHT22;2362;50.780;0.292;2022-07-04T07:56:55;21.90;99.90
4697;DHT22;2362;50.780;0.292;2022-07-04T07:59:20;21.60;99.90
4697;DHT22;2362;50.780;0.292;2022-07-04T08:01:46;21.50;99.90
4697;DHT22;2362;50.780;0.292;2022-07-04T08:04:12;22.60;99.90
4697;DHT22;2362;50.780;0.292;2022-07-04T08:06:56;24.00;99.90
4697;DHT22;2362;50.780;0.292;2022-07-04T08:09:22;23.80;99.90
4697;DHT22;2362;50.780;0.292;2022-07-04T08:11:47;24.30;99.90
4697;DHT22;2362;50.780;0.292;2022-07-04T08:14:13;24.20;99.90
4697;DHT22;2362;50.780;0.292;2022-07-04T08:16:39;24.60;99.90
4697;DHT22;2362;50.780;0.292;2022-07-04T08:19:06;25.30;99.90
4697;DHT22;2362;50.780;0.292;2022-07-04T08:21:31;25.20;99.90
4697;DHT22;2362;50.780;0.292;2022-07-04T08:23:57;25.40;99.90
4697;DHT22;2362;50.780;0.292;2022-07-04T08:26:23;25.30;99.90
4697;DHT22;2362;50.780;0.292;2022-07-04T08:28:49;25.20;99.90
4697;DHT22;2362;50.780;0.292;2022-07-04T08:31:18;25.00;99.90
4697;DHT22;2362;50.780;0.292;2022-07-04T08:33:44;24.80;99.90
4697;DHT22;2362;50.780;0.292;2022-07-04T08:36:10;24.70;99.90
4697;DHT22;2362;50.780;0.292;2022-07-04T08:38:35;24.50;99.90
4697;DHT22;2362;50.780;0.292;2022-07-04T08:41:03;25.50;99.90
4697;DHT22;2362;50.780;0.292;2022-07-04T08:43:30;25.40;99.90
4697;DHT22;2362;50.780;0.292;2022-07-04T08:45:59;25.70;99.90
4697;DHT22;2362;50.780;0.292;2022-07-04T08:48:26;24.90;99.90
4697;DHT22;2362;50.780;0.292;2022-07-04T08:50:56;25.20;99.90
4697;DHT22;2362;50.780;0.292;2022-07-04T08:53:30;24.70;99.90
4697;DHT22;2362;50.780;0.292;2022-07-04T08:55:56;25.30;99.90
4697;DHT22;2362;50.780;0.292;2022-07-04T08:58:45;25.70;99.90
4697;DHT22;2362;50.780;0.292;2022-07-04T09:01:11;25.80;99.90
4697;DHT22;2362;50.780;0.292;2022-07-04T09:03:42;24.60;99.90
4697;DHT22;2362;50.780;0.292;2022-07-04T09:06:09;24.00;99.90
4697;DHT22;2362;50.780;0.292;2022-07-04T09:08:35;24.50;99.90
4697;DHT22;2362;50.780;0.292;2022-07-04T09:11:02;25.40;99.90
4697;DHT22;2362;50.780;0.292;2022-07-04T09:13:28;26.30;99.90
4697;DHT22;2362;50.780;0.292;2022-07-04T09:15:54;26.90;99.90
4697;DHT22;2362;50.780;0.292;2022-07-04T09:20:57;27.20;99.90
4697;DHT22;2362;50.780;0.292;2022-07-04T09:23:25;27.10;99.90
4697;DHT22;2362;50.780;0.292;2022-07-04T09:28:32;26.70;99.90
4697;DHT22;2362;50.780;0.292;2022-07-04T09:30:57;26.60;99.90
4697;DHT22;2362;50.780;0.292;2022-07-04T09:36:18;26.10;99.90
4697;DHT22;2362;50.780;0.292;2022-07-04T09:38:44;26.10;99.90
4697;DHT22;2362;50.780;0.292;2022-07-04T09:41:10;25.60;99.90
4697;DHT22;2362;50.780;0.292;2022-07-04T09:44:02;24.80;99.90
4697;DHT22;2362;50.780;0.292;2022-07-04T09:46:28;24.20;99.90
4697;DHT22;2362;50.780;0.292;2022-07-04T09:48:54;23.80;99.90
4697;DHT22;2362;50.780;0.292;2022-07-04T09:51:37;23.40;99.90
4697;DHT22;2362;50.780;0.292;2022-07-04T09:54:32;23.30;99.90
4697;DHT22;2362;50.780;0.292;2022-07-04T09:57:00;23.50;99.90
4697;DHT22;2362;50.780;0.292;2022-07-04T09:59:26;23.50;99.90
4697;DHT22;2362;50.780;0.292;2022-07-04T10:02:09;23.30;99.90
4697;DHT22;2362;50.780;0.292;2022-07-04T10:04:42;23.10;99.90
4697;DHT22;2362;50.780;0.292;2022-07-04T10:07:08;22.90;99.90
4697;DHT22;2362;50.780;0.292;2022-07-04T10:09:34;22.90;99.90
4697;DHT22;2362;50.780;0.292;2022-07-04T10:11:59;22.70;99.90
4697;DHT22;2362;50.780;0.292;2022-07-04T10:14:27;22.60;99.90
4697;DHT22;2362;50.780;0.292;2022-07-04T10:16:53;22.50;99.90
4697;DHT22;2362;50.780;0.292;2022-07-04T10:19:19;22.20;99.90
4697;DHT22;2362;50.780;0.292;2022-07-04T10:21:46;22.00;99.90
4697;DHT22;2362;50.780;0.292;2022-07-04T10:24:12;22.10;99.90
4697;DHT22;2362;50.780;0.292;2022-07-04T10:26:38;22.30;99.90
4697;DHT22;2362;50.780;0.292;2022-07-04T10:29:04;22.30;99.90
4697;DHT22;2362;50.780;0.292;2022-07-04T10:31:31;21.90;99.90
4697;DHT22;2362;50.780;0.292;2022-07-04T10:33:59;22.10;99.90
4697;DHT22;2362;50.780;0.292;2022-07-04T10:36:27;21.90;99.90
4697;DHT22;2362;50.780;0.292;2022-07-04T10:41:22;22.20;99.90
4697;DHT22;2362;50.780;0.292;2022-07-04T10:43:55;22.30;99.90
4697;DHT22;2362;50.780;0.292;2022-07-04T10:54:34;21.70;99.90
4697;DHT22;2362;50.780;0.292;2022-07-04T10:59:37;21.40;99.90
4697;DHT22;2362;50.780;0.292;2022-07-04T11:17:52;21.90;99.90
4697;DHT22;2362;50.780;0.292;2022-07-04T11:20:18;21.90;99.90
4697;DHT22;2362;50.780;0.292;2022-07-04T11:22:44;21.80;99.90
4697;DHT22;2362;50.780;0.292;2022-07-04T11:25:11;21.70;99.90
4697;DHT22;2362;50.780;0.292;2022-07-04T11:27:37;21.70;99.90
4697;DHT22;2362;50.780;0.292;2022-07-04T11:30:03;21.30;99.90
4697;DHT22;2362;50.780;0.292;2022-07-04T11:32:31;21.40;99.90
4697;DHT22;2362;50.780;0.292;2022-07-04T11:34:57;21.30;99.90
4697;DHT22;2362;50.780;0.292;2022-07-04T11:37:23;21.10;99.90
4697;DHT22;2362;50.780;0.292;2022-07-04T11:39:53;21.30;99.90
4697;DHT22;2362;50.780;0.292;2022-07-04T11:42:39;21.40;99.90
4697;DHT22;2362;50.780;0.292;2022-07-04T11:45:24;21.40;99.90
4697;DHT22;2362;50.780;0.292;2022-07-04T11:47:51;21.60;99.90
4697;DHT22;2362;50.780;0.292;2022-07-04T11:50:17;21.70;99.90
4697;DHT22;2362;50.780;0.292;2022-07-04T11:52:48;21.60;99.90
4697;DHT22;2362;50.780;0.292;2022-07-04T11:55:17;21.40;99.90
4697;DHT22;2362;50.780;0.292;2022-07-04T11:57:45;21.40;99.90
4697;DHT22;2362;50.780;0.292;2022-07-04T12:00:17;21.40;99.90
4697;DHT22;2362;50.780;0.292;2022-07-04T12:02:45;21.30;99.90
4697;DHT22;2362;50.780;0.292;2022-07-04T12:05:11;21.20;99.90
4697;DHT22;2362;50.780;0.292;2022-07-04T12:07:42;21.00;99.90
4697;DHT22;2362;50.780;0.292;2022-07-04T12:13:35;21.90;99.90
4697;DHT22;2362;50.780;0.292;2022-07-04T12:15:46;22.00;99.90
4697;DHT22;2362;50.780;0.292;2022-07-04T12:18:25;22.00;99.90
4697;DHT22;2362;50.780;0.292;2022-07-04T12:20:52;22.00;99.90
4697;DHT22;2362;50.780;0.292;2022-07-04T12:23:22;22.00;99.90
4697;DHT22;2362;50.780;0.292;2022-07-04T12:25:50;21.70;99.90
4697;DHT22;2362;50.780;0.292;2022-07-04T12:28:18;21.60;99.90
4697;DHT22;2362;50.780;0.292;2022-07-04T12:33:19;21.30;99.90
4697;DHT22;2362;50.780;0.292;2022-07-04T12:35:49;21.40;99.90
4697;DHT22;2362;50.780;0.292;2022-07-04T12:41:10;21.50;99.90
4697;DHT22;2362;50.780;0.292;2022-07-04T12:48:37;21.40;99.90
4697;DHT22;2362;50.780;0.292;2022-07-04T12:51:23;21.10;99.90
4697;DHT22;2362;50.780;0.292;2022-07-04T12:53:50;20.90;99.90
4697;DHT22;2362;50.780;0.292;2022-07-04T12:56:30;20.90;99.90
4697;DHT22;2362;50.780;0.292;2022-07-04T12:59:00;20.70;99.90
4697;DHT22;2362;50.780;0.292;2022-07-04T13:01:27;20.50;99.90
4697;DHT22;2362;50.780;0.292;2022-07-04T13:03:53;20.40;99.90
4697;DHT22;2362;50.780;0.292;2022-07-04T13:06:19;20.10;99.90
4697;DHT22;2362;50.780;0.292;2022-07-04T13:08:45;20.10;99.90
4697;DHT22;2362;50.780;0.292;2022-07-04T13:11:11;20.20;99.90
4697;DHT22;2362;50.780;0.292;2022-07-04T13:13:56;20.00;99.90
4697;DHT22;2362;50.780;0.292;2022-07-04T13:16:22;20.20;99.90
4697;DHT22;2362;50.780;0.292;2022-07-04T13:18:47;20.30;99.90
4697;DHT22;2362;50.780;0.292;2022-07-04T13:21:13;20.20;99.90
4697;DHT22;2362;50.780;0.292;2022-07-04T13:23:39;19.90;99.90
4697;DHT22;2362;50.780;0.292;2022-07-04T13:26:05;20.00;99.90
4697;DHT22;2362;50.780;0.292;2022-07-04T13:28:31;20.10;99.90
4697;DHT22;2362;50.780;0.292;2022-07-04T13:30:56;20.20;99.90
4697;DHT22;2362;50.780;0.292;2022-07-04T13:33:22;20.00;99.90
4697;DHT22;2362;50.780;0.292;2022-07-04T13:35:48;20.10;99.90
4697;DHT22;2362;50.780;0.292;2022-07-04T13:38:14;20.20;99.90
4697;DHT22;2362;50.780;0.292;2022-07-04T13:40:43;20.00;99.90
4697;DHT22;2362;50.780;0.292;2022-07-04T13:43:11;19.70;99.90
4697;DHT22;2362;50.780;0.292;2022-07-04T13:45:38;19.70;99.90
4697;DHT22;2362;50.780;0.292;2022-07-04T13:48:05;19.70;99.90
4697;DHT22;2362;50.780;0.292;2022-07-04T13:50:31;19.80;99.90
4697;DHT22;2362;50.780;0.292;2022-07-04T13:52:57;19.80;99.90
4697;DHT22;2362;50.780;0.292;2022-07-04T13:55:23;19.40;99.90
4697;DHT22;2362;50.780;0.292;2022-07-04T13:57:49;19.40;99.90
4697;DHT22;2362;50.780;0.292;2022-07-04T14:00:15;19.50;99.90
4697;DHT22;2362;50.780;0.292;2022-07-04T14:02:41;19.50;99.90
4697;DHT22;2362;50.780;0.292;2022-07-04T14:05:06;19.50;99.90
4697;DHT22;2362;50.780;0.292;2022-07-04T14:07:32;19.60;99.90
4697;DHT22;2362;50.780;0.292;2022-07-04T14:09:59;19.80;99.90
4697;DHT22;2362;50.780;0.292;2022-07-04T14:12:25;20.00;99.90
4697;DHT22;2362;50.780;0.292;2022-07-04T14:14:51;20.00;99.90
4697;DHT22;2362;50.780;0.292;2022-07-04T14:17:17;20.00;99.90
4697;DHT22;2362;50.780;0.292;2022-07-04T14:19:43;20.00;99.90
4697;DHT22;2362;50.780;0.292;2022-07-04T14:22:08;20.10;99.90
4697;DHT22;2362;50.780;0.292;2022-07-04T14:24:34;19.90;99.90
4697;DHT22;2362;50.780;0.292;2022-07-04T14:27:00;19.80;99.90
4697;DHT22;2362;50.780;0.292;2022-07-04T14:29:26;19.60;99.90
4697;DHT22;2362;50.780;0.292;2022-07-04T14:31:52;19.50;99.90
4697;DHT22;2362;50.780;0.292;2022-07-04T14:34:18;19.70;99.90
4697;DHT22;2362;50.780;0.292;2022-07-04T14:36:44;19.70;99.90
4697;DHT22;2362;50.780;0.292;2022-07-04T14:39:10;19.80;99.90
4697;DHT22;2362;50.780;0.292;2022-07-04T14:41:35;19.70;99.90
4697;DHT22;2362;50.780;0.292;2022-07-04T14:44:01;19.70;99.90
4697;DHT22;2362;50.780;0.292;2022-07-04T14:46:27;19.70;99.90
4697;DHT22;2362;50.780;0.292;2022-07-04T14:48:55;19.70;99.90
4697;DHT22;2362;50.780;0.292;2022-07-04T14:51:21;19.80;99.90
4697;DHT22;2362;50.780;0.292;2022-07-04T14:53:46;19.80;99.90
4697;DHT22;2362;50.780;0.292;2022-07-04T14:56:12;19.80;99.90
4697;DHT22;2362;50.780;0.292;2022-07-04T14:58:37;19.90;99.90
4697;DHT22;2362;50.780;0.292;2022-07-04T15:01:03;19.80;99.90
4697;DHT22;2362;50.780;0.292;2022-07-04T15:03:29;19.80;99.90
4697;DHT22;2362;50.780;0.292;2022-07-04T15:05:55;19.80;99.90
4697;DHT22;2362;50.780;0.292;2022-07-04T15:08:20;19.60;99.90
4697;DHT22;2362;50.780;0.292;2022-07-04T15:10:46;19.70;99.90
4697;DHT22;2362;50.780;0.292;2022-07-04T15:13:12;19.60;99.90
4697;DHT22;2362;50.780;0.292;2022-07-04T15:15:39;19.70;99.90
4697;DHT22;2362;50.780;0.292;2022-07-04T15:18:05;19.50;99.90
4697;DHT22;2362;50.780;0.292;2022-07-04T15:20:31;19.60;99.90
4697;DHT22;2362;50.780;0.292;2022-07-04T15:23:15;19.70;99.90
4697;DHT22;2362;50.780;0.292;2022-07-04T15:26:07;19.80;99.90
4697;DHT22;2362;50.780;0.292;2022-07-04T15:28:33;19.70;99.90
4697;DHT22;2362;50.780;0.292;2022-07-04T15:30:59;19.70;99.90
4697;DHT22;2362;50.780;0.292;2022-07-04T15:33:27;19.70;99.90
4697;DHT22;2362;50.780;0.292;2022-07-04T15:35:56;19.60;99.90
4697;DHT22;2362;50.780;0.292;2022-07-04T15:38:22;19.70;99.90
4697;DHT22;2362;50.780;0.292;2022-07-04T15:40:49;19.60;99.90
4697;DHT22;2362;50.780;0.292;2022-07-04T15:43:15;19.60;99.90
4697;DHT22;2362;50.780;0.292;2022-07-04T15:45:41;19.30;99.90
4697;DHT22;2362;50.780;0.292;2022-07-04T15:48:08;19.40;99.90
4697;DHT22;2362;50.780;0.292;2022-07-04T15:50:34;19.40;99.90
4697;DHT22;2362;50.780;0.292;2022-07-04T15:53:00;19.50;99.90
4697;DHT22;2362;50.780;0.292;2022-07-04T15:55:25;19.40;99.90
4697;DHT22;2362;50.780;0.292;2022-07-04T15:57:51;19.30;99.90
4697;DHT22;2362;50.780;0.292;2022-07-04T16:00:18;19.30;99.90
4697;DHT22;2362;50.780;0.292;2022-07-04T16:02:45;19.30;99.90
4697;DHT22;2362;50.780;0.292;2022-07-04T16:05:11;19.20;99.90
4697;DHT22;2362;50.780;0.292;2022-07-04T16:07:37;19.20;99.90
4697;DHT22;2362;50.780;0.292;2022-07-04T16:10:04;19.20;99.90
4697;DHT22;2362;50.780;0.292;2022-07-04T16:12:30;19.10;99.90
4697;DHT22;2362;50.780;0.292;2022-07-04T16:14:57;19.10;99.90
4697;DHT22;2362;50.780;0.292;2022-07-04T16:17:23;19.20;99.90
4697;DHT22;2362;50.780;0.292;2022-07-04T16:19:49;19.30;99.90
4697;DHT22;2362;50.780;0.292;2022-07-04T16:22:15;19.50;99.90
4697;DHT22;2362;50.780;0.292;2022-07-04T16:24:41;19.60;99.90
4697;DHT22;2362;50.780;0.292;2022-07-04T16:27:06;19.50;99.90
4697;DHT22;2362;50.780;0.292;2022-07-04T16:29:32;19.40;99.90
4697;DHT22;2362;50.780;0.292;2022-07-04T16:31:58;19.40;99.90
4697;DHT22;2362;50.780;0.292;2022-07-04T16:34:24;19.40;99.90
4697;DHT22;2362;50.780;0.292;2022-07-04T16:36:49;19.50;99.90
4697;DHT22;2362;50.780;0.292;2022-07-04T16:39:15;19.50;99.90
4697;DHT22;2362;50.780;0.292;2022-07-04T16:41:41;19.60;99.90
4697;DHT22;2362;50.780;0.292;2022-07-04T16:44:08;19.50;99.90
4697;DHT22;2362;50.780;0.292;2022-07-04T16:46:34;19.30;99.90
4697;DHT22;2362;50.780;0.292;2022-07-04T16:49:00;19.40;99.90
4697;DHT22;2362;50.780;0.292;2022-07-04T16:51:26;19.40;99.90